Latest Coastal Weather Observations for Cato Island

IDQ60701

Issued at 11:32 am EST Friday 18 January 2019 (issued every 10 minutes, with the page automatically refreshed every 10 minutes)

About coastal observations | Map of coastal stations | Coastal observations for QLD | Marine services | Other Formats
Station Details ID: 200601 Name: CATO ISLAND Lat: -23.25 Lon: 155.54 Height: 6.3 m
Data from the previous 72 hours. | See also: Recent months for locations in Queensland
Date/Time
EST
Wind Sea
Height
m
Swell Vis
km
Cloud Weather Temp
°C
Press
hPa
Rain since
9am
mm
Dir  Spd
kts
Gust
kts
Height
m
Period
s
Dir
18/11:30am - 18 20 - - - - - - - 26.6 1014.2 -
18/11:00am - 18 21 - - - - - - - 26.5 1014.4 -
18/10:30am - 16 19 - - - - - - - 26.5 1014.6 -
18/10:00am - 17 19 - - - - - - - 26.6 1014.7 -
18/09:30am - 18 21 - - - - - - - 26.6 1014.7 -
18/09:00am - 17 19 - - - - - - - 26.5 1014.5 -
18/08:30am - 17 19 - - - - - - - 26.7 1014.4 -
18/08:00am - 17 20 - - - - - - - 26.6 1014.5 -
18/07:30am - 17 20 - - - - - - - 26.4 1014.3 -
18/07:00am - 14 15 - - - - - - - 26.6 1014.1 -
18/06:30am - 16 22 - - - - - - - 26.0 1013.9 -
18/06:00am - 23 28 - - - - - - - 24.1 1013.8 -
18/05:30am - 21 25 - - - - - - - 25.0 1013.3 -
18/05:00am - 14 17 - - - - - - - 25.5 1013.0 -
18/04:30am - 16 21 - - - - - - - 25.4 1012.5 -
18/04:00am - 20 22 - - - - - - - 25.5 1012.2 -
18/03:30am - 16 20 - - - - - - - 25.7 1012.0 -
18/03:00am - 16 19 - - - - - - - 25.5 1011.8 -
18/02:30am - 18 21 - - - - - - - 25.6 1011.8 -
18/02:00am - 18 20 - - - - - - - 25.5 1012.1 -
18/01:30am - 18 21 - - - - - - - 25.6 1012.3 -
18/01:00am - 19 22 - - - - - - - 25.7 1012.4 -
18/12:30am - 19 21 - - - - - - - 25.5 1012.8 -
18/12:00am - 18 19 - - - - - - - 25.4 1013.0 -
 
Date/Time
EST
Wind Sea
Height
m
Swell Vis
km
Cloud Weather Temp
°C
Press
hPa
Rain since
9am
mm
Dir  Spd
kts
Gust
kts
Height
m
Period
s
Dir
17/11:30pm - 19 22 - - - - - - - 25.4 1013.3 -
17/11:00pm - 16 18 - - - - - - - 25.6 1013.7 -
17/10:30pm - 18 21 - - - - - - - 25.5 1013.6 -
17/10:00pm - 19 22 - - - - - - - 25.6 1013.7 -
17/09:30pm - 19 21 - - - - - - - 25.7 1013.6 -
17/09:00pm - 18 20 - - - - - - - 25.6 1013.6 -
17/08:30pm - 18 20 - - - - - - - 25.7 1013.5 -
17/08:00pm - 17 19 - - - - - - - 25.6 1013.4 -
17/07:30pm - 16 19 - - - - - - - 25.8 1013.3 -
17/07:00pm - 15 17 - - - - - - - 25.7 1013.0 -
17/06:30pm - 14 16 - - - - - - - 25.8 1013.0 -
17/06:00pm - 14 17 - - - - - - - 25.8 1012.5 -
17/05:30pm - 15 16 - - - - - - - 25.8 1012.1 -
17/05:00pm - 14 16 - - - - - - - 26.3 1011.8 -
17/04:30pm - 14 16 - - - - - - - 26.1 1011.8 -
17/04:00pm - 15 18 - - - - - - - 26.3 1011.5 -
17/03:30pm - 15 19 - - - - - - - 26.8 1011.6 -
17/03:00pm - 15 17 - - - - - - - 26.7 1011.7 -
17/02:30pm - 15 17 - - - - - - - 26.7 1012.0 -
17/02:00pm - 13 15 - - - - - - - 26.7 1012.2 -
17/01:30pm - 14 16 - - - - - - - 26.5 1012.4 -
17/01:00pm - 14 16 - - - - - - - 26.5 1012.5 -
17/12:30pm - 14 17 - - - - - - - 26.8 1012.8 -
17/12:00pm - 13 16 - - - - - - - 26.6 1013.0 -
17/11:30am - 13 16 - - - - - - - 26.8 1013.4 -
17/11:00am - 14 17 - - - - - - - 26.9 1013.4 -
17/10:30am - 16 18 - - - - - - - 26.8 1013.6 -
17/10:00am - 16 19 - - - - - - - 26.7 1013.5 -
17/09:30am - 17 19 - - - - - - - 26.3 1013.6 -
17/09:00am - 17 20 - - - - - - - 25.9 1013.5 -
17/08:30am - 19 21 - - - - - - - 25.8 1013.3 -
17/08:00am - 18 20 - - - - - - - 25.6 1013.2 -
17/07:30am - 15 19 - - - - - - - 24.1 1013.3 -
17/07:00am - 14 16 - - - - - - - 24.6 1013.4 -
17/06:30am - 20 23 - - - - - - - 24.4 1013.2 -
17/06:00am - 20 23 - - - - - - - 24.6 1012.9 -
17/05:30am - 20 22 - - - - - - - 24.9 1012.5 -
17/05:00am - 19 22 - - - - - - - 24.8 1012.1 -
17/04:30am - 16 18 - - - - - - - 24.8 1011.6 -
17/04:00am - 13 14 - - - - - - - 25.1 1011.4 -
17/03:30am - 13 15 - - - - - - - 25.3 1011.3 -
17/03:00am - 14 17 - - - - - - - 25.4 1011.2 -
17/02:30am - 16 18 - - - - - - - 25.2 1011.3 -
17/02:00am - 16 18 - - - - - - - 25.1 1011.4 -
17/01:30am - 15 17 - - - - - - - 25.3 1011.6 -
17/01:00am - 15 17 - - - - - - - 25.1 1011.8 -
17/12:30am - 14 17 - - - - - - - 25.0 1011.9 -
17/12:00am - 7 11 - - - - - - - 24.2 1012.2 -
 
Date/Time
EST
Wind Sea
Height
m
Swell Vis
km
Cloud Weather Temp
°C
Press
hPa
Rain since
9am
mm
Dir  Spd
kts
Gust
kts
Height
m
Period
s
Dir
16/11:30pm - 20 23 - - - - - - - 24.0 1012.4 -
16/11:00pm - 16 21 - - - - - - - 24.9 1012.5 -
16/10:30pm - 13 15 - - - - - - - 25.4 1012.8 -
16/10:00pm - 15 18 - - - - - - - 25.2 1012.8 -
16/09:30pm - 15 17 - - - - - - - 25.8 1012.7 -
16/09:00pm - 15 17 - - - - - - - 25.7 1012.6 -
16/08:30pm - 16 18 - - - - - - - 25.8 1012.5 -
16/08:00pm - 16 18 - - - - - - - 25.8 1012.4 -
16/07:30pm - 14 16 - - - - - - - 25.4 1012.3 -
16/07:00pm - 16 17 - - - - - - - 25.5 1012.1 -
16/06:30pm - 15 16 - - - - - - - 25.6 1012.0 -
16/06:00pm - 17 20 - - - - - - - 25.2 1011.6 -
16/05:30pm - 16 21 - - - - - - - 24.7 1011.5 -
16/05:00pm - 16 19 - - - - - - - 25.9 1011.1 -
16/04:30pm - 17 19 - - - - - - - 25.8 1010.9 -
16/04:00pm - 16 18 - - - - - - - 25.8 1010.9 -
16/03:30pm - 15 17 - - - - - - - 25.9 1010.8 -
16/03:00pm - 15 16 - - - - - - - 26.3 1010.9 -
16/02:30pm - 14 16 - - - - - - - 26.2 1011.2 -
16/02:00pm - 15 17 - - - - - - - 26.2 1011.5 -
16/01:30pm - 15 17 - - - - - - - 26.4 1011.7 -
16/01:00pm - 16 18 - - - - - - - 26.2 1011.9 -
16/12:30pm - 14 16 - - - - - - - 26.8 1012.0 -
16/12:00pm - 12 14 - - - - - - - 26.8 1012.3 -
16/11:30am - 12 14 - - - - - - - 26.8 1012.6 -
16/11:00am - 13 15 - - - - - - - 26.5 1012.8 -
16/10:30am - 13 15 - - - - - - - 26.1 1013.0 -
16/10:00am - 12 14 - - - - - - - 26.0 1012.9 -
16/09:30am - 11 13 - - - - - - - 26.7 1013.0 -
16/09:00am - 12 14 - - - - - - - 26.4 1012.8 -
16/08:30am - 13 15 - - - - - - - 26.3 1012.7 -
16/08:00am - 14 16 - - - - - - - 26.4 1012.7 -
16/07:30am - 14 17 - - - - - - - 25.8 1012.6 -
16/07:00am - 14 16 - - - - - - - 25.9 1012.5 -
16/06:30am - 14 16 - - - - - - - 25.6 1012.3 -
16/06:00am - 13 15 - - - - - - - 25.7 1012.3 -
16/05:30am - 14 17 - - - - - - - 25.2 1011.9 -
16/05:00am - 14 16 - - - - - - - 25.2 1011.4 -
16/04:30am - 14 17 - - - - - - - 25.4 1011.1 -
16/04:00am - 15 17 - - - - - - - 25.2 1010.9 -
16/03:30am - 16 18 - - - - - - - 25.2 1010.9 -
16/03:00am - 16 19 - - - - - - - 25.3 1010.9 -
16/02:30am - 16 19 - - - - - - - 25.6 1011.2 -
16/02:00am - 17 20 - - - - - - - 25.3 1011.2 -
16/01:30am - 17 20 - - - - - - - 25.4 1011.4 -
16/01:00am - 18 21 - - - - - - - 25.6 1011.7 -
16/12:30am - 19 22 - - - - - - - 25.6 1011.9 -
16/12:00am - 19 21 - - - - - - - 25.4 1012.1 -
 
Date/Time
EST
Wind Sea
Height
m
Swell Vis
km
Cloud Weather Temp
°C
Press
hPa
Rain since
9am
mm
Dir  Spd
kts
Gust
kts
Height
m
Period
s
Dir
15/11:30pm - 20 22 - - - - - - - 25.5 1012.3 -
15/11:00pm - 21 24 - - - - - - - 25.4 1012.5 -
15/10:30pm - 18 20 - - - - - - - 25.6 1012.9 -
15/10:00pm - 20 23 - - - - - - - 25.9 1013.0 -
15/09:30pm - 20 23 - - - - - - - 25.7 1013.1 -
15/09:00pm - 19 21 - - - - - - - 25.7 1013.2 -
15/08:30pm - 17 19 - - - - - - - 25.7 1013.2 -
15/08:00pm - 18 20 - - - - - - - 25.7 1013.0 -
15/07:30pm - 18 21 - - - - - - - 25.5 1012.8 -
15/07:00pm - 19 22 - - - - - - - 25.7 1012.5 -
15/06:30pm - 19 22 - - - - - - - 25.5 1012.5 -
15/06:00pm - 20 23 - - - - - - - 25.8 1012.3 -
15/05:30pm - 20 23 - - - - - - - 25.8 1012.1 -
15/05:00pm - 20 24 - - - - - - - 26.1 1011.8 -
15/04:30pm - 20 23 - - - - - - - 26.1 1011.8 -
15/04:00pm - 18 22 - - - - - - - 26.1 1011.7 -
15/03:30pm - 19 21 - - - - - - - 26.1 1011.7 -
15/03:00pm - 17 21 - - - - - - - 26.4 1011.8 -
15/02:30pm - 17 21 - - - - - - - 26.3 1011.9 -
15/02:00pm - 18 21 - - - - - - - 26.5 1012.0 -
15/01:30pm - 17 19 - - - - - - - 26.5 1012.3 -
15/01:00pm - 18 19 - - - - - - - 26.3 1012.5 -
15/12:30pm - 18 20 - - - - - - - 26.4 1012.6 -
15/12:00pm - 18 21 - - - - - - - 26.5 1012.8 -

Other Formats:

Comma delimited format used in spreadsheet applications
http://www.bom.gov.au/fwo/IDQ60701/IDQ60701.94394.axf

JavaScript Object Notation format (JSON) in row-major order
http://www.bom.gov.au/fwo/IDQ60701/IDQ60701.94394.json